sensor_id;sensor_type;location;lat;lon;timestamp;P1;durP1;ratioP1;P2;durP2;ratioP2
70780;SDS011;59514;48.810;2.134;2023-04-25T00:00:07;1.87;;;1.77;;
70780;SDS011;59514;48.810;2.134;2023-04-25T00:02:33;1.83;;;1.70;;
70780;SDS011;59514;48.810;2.134;2023-04-25T00:04:59;1.60;;;1.50;;
70780;SDS011;59514;48.810;2.134;2023-04-25T00:07:26;1.98;;;1.60;;
70780;SDS011;59514;48.810;2.134;2023-04-25T00:09:52;1.73;;;1.63;;
70780;SDS011;59514;48.810;2.134;2023-04-25T00:12:17;1.73;;;1.60;;
70780;SDS011;59514;48.810;2.134;2023-04-25T00:14:42;2.03;;;1.90;;
70780;SDS011;59514;48.810;2.134;2023-04-25T00:17:07;1.98;;;1.77;;
70780;SDS011;59514;48.810;2.134;2023-04-25T00:19:32;3.23;;;2.13;;
70780;SDS011;59514;48.810;2.134;2023-04-25T00:21:59;2.47;;;2.28;;
70780;SDS011;59514;48.810;2.134;2023-04-25T00:24:25;2.22;;;2.03;;
70780;SDS011;59514;48.810;2.134;2023-04-25T00:26:50;2.70;;;2.50;;
70780;SDS011;59514;48.810;2.134;2023-04-25T00:29:15;2.97;;;2.70;;
70780;SDS011;59514;48.810;2.134;2023-04-25T00:31:40;2.53;;;2.30;;
70780;SDS011;59514;48.810;2.134;2023-04-25T00:34:06;2.73;;;2.30;;
70780;SDS011;59514;48.810;2.134;2023-04-25T00:36:31;3.17;;;2.53;;
70780;SDS011;59514;48.810;2.134;2023-04-25T00:38:56;2.33;;;2.13;;
70780;SDS011;59514;48.810;2.134;2023-04-25T00:41:22;2.03;;;1.92;;
70780;SDS011;59514;48.810;2.134;2023-04-25T00:43:48;2.38;;;2.17;;
70780;SDS011;59514;48.810;2.134;2023-04-25T00:46:13;5.55;;;2.58;;
70780;SDS011;59514;48.810;2.134;2023-04-25T00:48:38;2.50;;;2.30;;
70780;SDS011;59514;48.810;2.134;2023-04-25T00:51:03;2.40;;;2.10;;
70780;SDS011;59514;48.810;2.134;2023-04-25T00:53:28;2.75;;;2.47;;
70780;SDS011;59514;48.810;2.134;2023-04-25T00:55:54;3.80;;;2.70;;
70780;SDS011;59514;48.810;2.134;2023-04-25T00:58:20;3.25;;;2.60;;
70780;SDS011;59514;48.810;2.134;2023-04-25T01:00:46;3.83;;;3.50;;
70780;SDS011;59514;48.810;2.134;2023-04-25T01:03:12;3.55;;;3.20;;
70780;SDS011;59514;48.810;2.134;2023-04-25T01:05:39;3.03;;;2.80;;
70780;SDS011;59514;48.810;2.134;2023-04-25T01:08:04;4.25;;;3.35;;
70780;SDS011;59514;48.810;2.134;2023-04-25T01:10:29;3.20;;;2.90;;
70780;SDS011;59514;48.810;2.134;2023-04-25T01:12:55;2.93;;;2.73;;
70780;SDS011;59514;48.810;2.134;2023-04-25T01:15:20;3.33;;;2.70;;
70780;SDS011;59514;48.810;2.134;2023-04-25T01:17:45;3.38;;;2.53;;
70780;SDS011;59514;48.810;2.134;2023-04-25T01:20:11;3.08;;;2.33;;
70780;SDS011;59514;48.810;2.134;2023-04-25T01:22:37;2.40;;;2.20;;
70780;SDS011;59514;48.810;2.134;2023-04-25T01:25:03;3.85;;;3.40;;
70780;SDS011;59514;48.810;2.134;2023-04-25T01:27:28;2.95;;;2.60;;
70780;SDS011;59514;48.810;2.134;2023-04-25T01:29:54;2.67;;;2.47;;
70780;SDS011;59514;48.810;2.134;2023-04-25T01:32:19;3.08;;;2.78;;
70780;SDS011;59514;48.810;2.134;2023-04-25T01:34:45;3.13;;;2.83;;
70780;SDS011;59514;48.810;2.134;2023-04-25T01:37:10;2.63;;;2.43;;
70780;SDS011;59514;48.810;2.134;2023-04-25T01:39:36;2.90;;;2.50;;
70780;SDS011;59514;48.810;2.134;2023-04-25T01:42:01;3.20;;;2.60;;
70780;SDS011;59514;48.810;2.134;2023-04-25T01:44:27;2.63;;;2.42;;
70780;SDS011;59514;48.810;2.134;2023-04-25T01:46:52;3.38;;;2.30;;
70780;SDS011;59514;48.810;2.134;2023-04-25T01:49:17;2.33;;;2.13;;
70780;SDS011;59514;48.810;2.134;2023-04-25T01:51:42;2.92;;;2.63;;
70780;SDS011;59514;48.810;2.134;2023-04-25T01:54:08;2.70;;;2.50;;
70780;SDS011;59514;48.810;2.134;2023-04-25T01:56:36;2.75;;;2.50;;
70780;SDS011;59514;48.810;2.134;2023-04-25T01:59:01;3.67;;;2.60;;
70780;SDS011;59514;48.810;2.134;2023-04-25T02:01:26;4.57;;;3.03;;
70780;SDS011;59514;48.810;2.134;2023-04-25T02:03:51;2.70;;;2.20;;
70780;SDS011;59514;48.810;2.134;2023-04-25T02:06:17;2.67;;;2.47;;
70780;SDS011;59514;48.810;2.134;2023-04-25T02:08:42;3.70;;;2.70;;
70780;SDS011;59514;48.810;2.134;2023-04-25T02:11:07;2.93;;;2.67;;
70780;SDS011;59514;48.810;2.134;2023-04-25T02:13:32;2.67;;;2.47;;
70780;SDS011;59514;48.810;2.134;2023-04-25T02:15:57;3.30;;;3.00;;
70780;SDS011;59514;48.810;2.134;2023-04-25T02:18:23;3.43;;;2.90;;
70780;SDS011;59514;48.810;2.134;2023-04-25T02:20:48;3.33;;;3.03;;
70780;SDS011;59514;48.810;2.134;2023-04-25T02:23:13;3.17;;;2.88;;
70780;SDS011;59514;48.810;2.134;2023-04-25T02:25:40;4.13;;;3.33;;
70780;SDS011;59514;48.810;2.134;2023-04-25T02:28:05;4.75;;;3.83;;
70780;SDS011;59514;48.810;2.134;2023-04-25T02:30:30;5.53;;;3.97;;
70780;SDS011;59514;48.810;2.134;2023-04-25T02:32:55;5.33;;;4.10;;
70780;SDS011;59514;48.810;2.134;2023-04-25T02:35:21;5.63;;;4.25;;
70780;SDS011;59514;48.810;2.134;2023-04-25T02:37:46;5.17;;;4.07;;
70780;SDS011;59514;48.810;2.134;2023-04-25T02:40:11;4.77;;;3.10;;
70780;SDS011;59514;48.810;2.134;2023-04-25T02:42:37;6.80;;;4.15;;
70780;SDS011;59514;48.810;2.134;2023-04-25T02:45:02;6.83;;;4.37;;
70780;SDS011;59514;48.810;2.134;2023-04-25T02:47:27;4.18;;;3.15;;
70780;SDS011;59514;48.810;2.134;2023-04-25T02:49:53;7.63;;;4.67;;
70780;SDS011;59514;48.810;2.134;2023-04-25T02:52:18;7.07;;;4.63;;
70780;SDS011;59514;48.810;2.134;2023-04-25T02:54:43;8.20;;;3.90;;
70780;SDS011;59514;48.810;2.134;2023-04-25T02:57:08;5.40;;;4.00;;
70780;SDS011;59514;48.810;2.134;2023-04-25T02:59:34;4.30;;;3.90;;
70780;SDS011;59514;48.810;2.134;2023-04-25T03:01:59;5.35;;;4.35;;
70780;SDS011;59514;48.810;2.134;2023-04-25T03:04:24;4.83;;;3.67;;
70780;SDS011;59514;48.810;2.134;2023-04-25T03:06:50;5.65;;;3.47;;
70780;SDS011;59514;48.810;2.134;2023-04-25T03:09:15;4.00;;;3.47;;
70780;SDS011;59514;48.810;2.134;2023-04-25T03:11:40;4.47;;;3.47;;
70780;SDS011;59514;48.810;2.134;2023-04-25T03:14:06;6.93;;;3.80;;
70780;SDS011;59514;48.810;2.134;2023-04-25T03:16:31;5.23;;;3.00;;
70780;SDS011;59514;48.810;2.134;2023-04-25T03:18:56;4.57;;;3.40;;
70780;SDS011;59514;48.810;2.134;2023-04-25T03:21:22;6.93;;;3.90;;
70780;SDS011;59514;48.810;2.134;2023-04-25T03:23:47;3.58;;;3.03;;
70780;SDS011;59514;48.810;2.134;2023-04-25T03:26:12;3.20;;;3.00;;
70780;SDS011;59514;48.810;2.134;2023-04-25T03:28:37;4.78;;;3.67;;
70780;SDS011;59514;48.810;2.134;2023-04-25T03:31:02;3.90;;;3.47;;
70780;SDS011;59514;48.810;2.134;2023-04-25T03:33:28;3.47;;;3.10;;
70780;SDS011;59514;48.810;2.134;2023-04-25T03:35:53;6.77;;;3.70;;
70780;SDS011;59514;48.810;2.134;2023-04-25T03:38:18;6.07;;;4.05;;
70780;SDS011;59514;48.810;2.134;2023-04-25T03:40:43;5.60;;;3.72;;
70780;SDS011;59514;48.810;2.134;2023-04-25T03:43:09;6.07;;;3.50;;
70780;SDS011;59514;48.810;2.134;2023-04-25T03:45:34;5.10;;;4.60;;
70780;SDS011;59514;48.810;2.134;2023-04-25T03:47:59;5.57;;;4.07;;
70780;SDS011;59514;48.810;2.134;2023-04-25T03:50:25;4.80;;;3.85;;
70780;SDS011;59514;48.810;2.134;2023-04-25T03:52:50;5.20;;;3.43;;
70780;SDS011;59514;48.810;2.134;2023-04-25T03:55:15;4.27;;;3.87;;
70780;SDS011;59514;48.810;2.134;2023-04-25T03:57:40;3.60;;;3.30;;
70780;SDS011;59514;48.810;2.134;2023-04-25T04:00:06;4.13;;;3.60;;
70780;SDS011;59514;48.810;2.134;2023-04-25T04:02:31;4.78;;;3.78;;
70780;SDS011;59514;48.810;2.134;2023-04-25T04:04:58;4.90;;;4.38;;
70780;SDS011;59514;48.810;2.134;2023-04-25T04:07:23;6.87;;;4.80;;
70780;SDS011;59514;48.810;2.134;2023-04-25T04:09:48;4.88;;;3.65;;
70780;SDS011;59514;48.810;2.134;2023-04-25T04:12:13;7.43;;;4.13;;
70780;SDS011;59514;48.810;2.134;2023-04-25T04:14:38;6.10;;;4.40;;
70780;SDS011;59514;48.810;2.134;2023-04-25T04:17:04;5.50;;;4.37;;
70780;SDS011;59514;48.810;2.134;2023-04-25T04:19:29;8.53;;;4.50;;
70780;SDS011;59514;48.810;2.134;2023-04-25T04:21:54;4.27;;;3.87;;
70780;SDS011;59514;48.810;2.134;2023-04-25T04:24:19;5.57;;;4.20;;
70780;SDS011;59514;48.810;2.134;2023-04-25T04:26:44;4.10;;;3.70;;
70780;SDS011;59514;48.810;2.134;2023-04-25T04:29:10;6.32;;;4.57;;
70780;SDS011;59514;48.810;2.134;2023-04-25T04:31:35;7.40;;;5.97;;
70780;SDS011;59514;48.810;2.134;2023-04-25T04:34:01;4.65;;;4.20;;
70780;SDS011;59514;48.810;2.134;2023-04-25T04:36:26;10.32;;;4.60;;
70780;SDS011;59514;48.810;2.134;2023-04-25T04:38:52;6.38;;;4.75;;
70780;SDS011;59514;48.810;2.134;2023-04-25T04:41:17;5.37;;;4.20;;
70780;SDS011;59514;48.810;2.134;2023-04-25T04:43:44;4.35;;;3.95;;
70780;SDS011;59514;48.810;2.134;2023-04-25T04:46:09;5.43;;;4.53;;
70780;SDS011;59514;48.810;2.134;2023-04-25T04:48:35;6.93;;;4.78;;
70780;SDS011;59514;48.810;2.134;2023-04-25T04:51:00;8.52;;;5.57;;
70780;SDS011;59514;48.810;2.134;2023-04-25T04:53:26;7.88;;;5.10;;
70780;SDS011;59514;48.810;2.134;2023-04-25T04:55:51;10.00;;;5.82;;
70780;SDS011;59514;48.810;2.134;2023-04-25T04:58:16;7.07;;;5.10;;
70780;SDS011;59514;48.810;2.134;2023-04-25T05:00:41;6.13;;;5.40;;
70780;SDS011;59514;48.810;2.134;2023-04-25T05:03:06;6.33;;;4.80;;
70780;SDS011;59514;48.810;2.134;2023-04-25T05:05:32;7.77;;;6.10;;
70780;SDS011;59514;48.810;2.134;2023-04-25T05:07:57;12.80;;;6.65;;
70780;SDS011;59514;48.810;2.134;2023-04-25T05:10:22;7.87;;;5.30;;
70780;SDS011;59514;48.810;2.134;2023-04-25T05:12:47;6.57;;;5.50;;
70780;SDS011;59514;48.810;2.134;2023-04-25T05:15:13;9.23;;;5.87;;
70780;SDS011;59514;48.810;2.134;2023-04-25T05:17:38;8.75;;;5.80;;
70780;SDS011;59514;48.810;2.134;2023-04-25T05:20:04;10.73;;;7.35;;
70780;SDS011;59514;48.810;2.134;2023-04-25T05:22:30;9.80;;;6.30;;
70780;SDS011;59514;48.810;2.134;2023-04-25T05:24:56;7.35;;;6.28;;
70780;SDS011;59514;48.810;2.134;2023-04-25T05:27:21;8.43;;;6.33;;
70780;SDS011;59514;48.810;2.134;2023-04-25T05:29:46;7.47;;;6.30;;
70780;SDS011;59514;48.810;2.134;2023-04-25T05:32:11;8.57;;;6.67;;
70780;SDS011;59514;48.810;2.134;2023-04-25T05:34:37;10.18;;;7.20;;
70780;SDS011;59514;48.810;2.134;2023-04-25T05:37:02;6.67;;;5.63;;
70780;SDS011;59514;48.810;2.134;2023-04-25T05:39:27;10.13;;;6.47;;
70780;SDS011;59514;48.810;2.134;2023-04-25T05:41:52;8.48;;;5.80;;
70780;SDS011;59514;48.810;2.134;2023-04-25T05:44:18;8.13;;;5.80;;
70780;SDS011;59514;48.810;2.134;2023-04-25T05:46:43;11.40;;;5.87;;
70780;SDS011;59514;48.810;2.134;2023-04-25T05:49:08;10.18;;;6.03;;
70780;SDS011;59514;48.810;2.134;2023-04-25T05:51:33;7.32;;;6.20;;
70780;SDS011;59514;48.810;2.134;2023-04-25T05:53:59;7.60;;;5.50;;
70780;SDS011;59514;48.810;2.134;2023-04-25T05:56:24;8.77;;;6.77;;
70780;SDS011;59514;48.810;2.134;2023-04-25T05:58:49;7.68;;;5.70;;
70780;SDS011;59514;48.810;2.134;2023-04-25T06:01:14;7.77;;;5.73;;
70780;SDS011;59514;48.810;2.134;2023-04-25T06:03:40;7.63;;;5.80;;
70780;SDS011;59514;48.810;2.134;2023-04-25T06:06:08;8.65;;;6.63;;
70780;SDS011;59514;48.810;2.134;2023-04-25T06:08:33;8.90;;;6.45;;
70780;SDS011;59514;48.810;2.134;2023-04-25T06:10:58;6.70;;;5.97;;
70780;SDS011;59514;48.810;2.134;2023-04-25T06:13:23;9.07;;;6.47;;
70780;SDS011;59514;48.810;2.134;2023-04-25T06:15:49;6.67;;;5.77;;
70780;SDS011;59514;48.810;2.134;2023-04-25T06:18:14;6.17;;;5.57;;
70780;SDS011;59514;48.810;2.134;2023-04-25T06:20:39;8.32;;;6.07;;
70780;SDS011;59514;48.810;2.134;2023-04-25T06:23:04;8.77;;;5.97;;
70780;SDS011;59514;48.810;2.134;2023-04-25T06:25:30;9.02;;;5.97;;
70780;SDS011;59514;48.810;2.134;2023-04-25T06:27:55;9.10;;;6.07;;
70780;SDS011;59514;48.810;2.134;2023-04-25T06:30:20;9.10;;;6.20;;
70780;SDS011;59514;48.810;2.134;2023-04-25T06:32:49;9.43;;;6.30;;
70780;SDS011;59514;48.810;2.134;2023-04-25T06:35:14;10.20;;;5.83;;
70780;SDS011;59514;48.810;2.134;2023-04-25T06:37:40;7.18;;;5.85;;
70780;SDS011;59514;48.810;2.134;2023-04-25T06:40:05;5.90;;;5.30;;
70780;SDS011;59514;48.810;2.134;2023-04-25T06:42:32;5.88;;;5.25;;
70780;SDS011;59514;48.810;2.134;2023-04-25T06:44:57;7.97;;;5.40;;
70780;SDS011;59514;48.810;2.134;2023-04-25T06:47:22;5.65;;;5.05;;
70780;SDS011;59514;48.810;2.134;2023-04-25T06:49:47;5.50;;;4.87;;
70780;SDS011;59514;48.810;2.134;2023-04-25T06:52:13;6.63;;;5.07;;
70780;SDS011;59514;48.810;2.134;2023-04-25T06:54:38;5.80;;;4.20;;
70780;SDS011;59514;48.810;2.134;2023-04-25T06:57:03;5.80;;;4.60;;
70780;SDS011;59514;48.810;2.134;2023-04-25T06:59:28;4.83;;;4.30;;
70780;SDS011;59514;48.810;2.134;2023-04-25T07:01:53;4.93;;;4.53;;
70780;SDS011;59514;48.810;2.134;2023-04-25T07:04:19;5.13;;;4.07;;
70780;SDS011;59514;48.810;2.134;2023-04-25T07:06:44;5.35;;;4.85;;
70780;SDS011;59514;48.810;2.134;2023-04-25T07:09:09;6.53;;;5.55;;
70780;SDS011;59514;48.810;2.134;2023-04-25T07:11:35;5.15;;;4.65;;
70780;SDS011;59514;48.810;2.134;2023-04-25T07:14:00;5.30;;;4.80;;
70780;SDS011;59514;48.810;2.134;2023-04-25T07:16:26;6.85;;;5.85;;
70780;SDS011;59514;48.810;2.134;2023-04-25T07:18:51;6.40;;;5.53;;
70780;SDS011;59514;48.810;2.134;2023-04-25T07:21:16;7.63;;;6.30;;
70780;SDS011;59514;48.810;2.134;2023-04-25T07:23:41;6.80;;;5.90;;
70780;SDS011;59514;48.810;2.134;2023-04-25T07:26:06;7.53;;;6.73;;
70780;SDS011;59514;48.810;2.134;2023-04-25T07:28:32;8.57;;;7.63;;
70780;SDS011;59514;48.810;2.134;2023-04-25T07:30:57;7.47;;;6.60;;
70780;SDS011;59514;48.810;2.134;2023-04-25T07:33:23;7.82;;;7.05;;
70780;SDS011;59514;48.810;2.134;2023-04-25T07:35:48;8.38;;;6.90;;
70780;SDS011;59514;48.810;2.134;2023-04-25T07:38:13;7.90;;;6.37;;
70780;SDS011;59514;48.810;2.134;2023-04-25T07:40:38;6.93;;;6.30;;
70780;SDS011;59514;48.810;2.134;2023-04-25T07:43:04;8.23;;;6.30;;
70780;SDS011;59514;48.810;2.134;2023-04-25T07:45:29;7.57;;;6.77;;
70780;SDS011;59514;48.810;2.134;2023-04-25T07:47:54;11.70;;;8.13;;
70780;SDS011;59514;48.810;2.134;2023-04-25T07:50:19;9.47;;;8.23;;
70780;SDS011;59514;48.810;2.134;2023-04-25T07:52:44;10.90;;;8.43;;
70780;SDS011;59514;48.810;2.134;2023-04-25T07:55:10;11.03;;;8.33;;
70780;SDS011;59514;48.810;2.134;2023-04-25T07:57:35;12.73;;;9.52;;
70780;SDS011;59514;48.810;2.134;2023-04-25T08:00:00;10.20;;;8.73;;
70780;SDS011;59514;48.810;2.134;2023-04-25T08:02:25;10.70;;;8.53;;
70780;SDS011;59514;48.810;2.134;2023-04-25T08:04:53;15.73;;;10.65;;
70780;SDS011;59514;48.810;2.134;2023-04-25T08:07:18;10.17;;;8.90;;
70780;SDS011;59514;48.810;2.134;2023-04-25T08:09:43;9.40;;;8.40;;
70780;SDS011;59514;48.810;2.134;2023-04-25T08:12:08;15.95;;;9.68;;
70780;SDS011;59514;48.810;2.134;2023-04-25T08:14:33;15.13;;;9.73;;
70780;SDS011;59514;48.810;2.134;2023-04-25T08:17:02;8.88;;;7.97;;
70780;SDS011;59514;48.810;2.134;2023-04-25T08:19:28;11.98;;;8.00;;
70780;SDS011;59514;48.810;2.134;2023-04-25T08:21:53;11.18;;;8.65;;
70780;SDS011;59514;48.810;2.134;2023-04-25T08:24:20;10.10;;;7.82;;
70780;SDS011;59514;48.810;2.134;2023-04-25T08:26:45;8.63;;;7.53;;
70780;SDS011;59514;48.810;2.134;2023-04-25T08:29:10;8.43;;;7.63;;
70780;SDS011;59514;48.810;2.134;2023-04-25T08:31:36;11.03;;;8.63;;
70780;SDS011;59514;48.810;2.134;2023-04-25T08:34:01;9.93;;;8.38;;
70780;SDS011;59514;48.810;2.134;2023-04-25T08:36:27;9.17;;;6.87;;
70780;SDS011;59514;48.810;2.134;2023-04-25T08:38:53;9.18;;;7.32;;
70780;SDS011;59514;48.810;2.134;2023-04-25T08:41:18;9.60;;;7.05;;
70780;SDS011;59514;48.810;2.134;2023-04-25T08:43:45;8.73;;;6.82;;
70780;SDS011;59514;48.810;2.134;2023-04-25T08:46:13;8.60;;;7.20;;
70780;SDS011;59514;48.810;2.134;2023-04-25T08:48:42;7.95;;;7.15;;
70780;SDS011;59514;48.810;2.134;2023-04-25T08:51:07;7.70;;;6.53;;
70780;SDS011;59514;48.810;2.134;2023-04-25T08:53:33;9.48;;;6.45;;
70780;SDS011;59514;48.810;2.134;2023-04-25T08:55:59;8.15;;;6.47;;
70780;SDS011;59514;48.810;2.134;2023-04-25T08:58:27;7.40;;;6.53;;
70780;SDS011;59514;48.810;2.134;2023-04-25T09:00:52;8.73;;;6.80;;
70780;SDS011;59514;48.810;2.134;2023-04-25T09:03:18;7.13;;;5.93;;
70780;SDS011;59514;48.810;2.134;2023-04-25T09:05:43;9.02;;;6.60;;
70780;SDS011;59514;48.810;2.134;2023-04-25T09:08:08;7.28;;;5.35;;
70780;SDS011;59514;48.810;2.134;2023-04-25T09:10:34;6.50;;;5.60;;
70780;SDS011;59514;48.810;2.134;2023-04-25T09:15:31;9.27;;;5.53;;
70780;SDS011;59514;48.810;2.134;2023-04-25T09:17:56;6.10;;;5.25;;
70780;SDS011;59514;48.810;2.134;2023-04-25T09:20:22;7.25;;;5.57;;
70780;SDS011;59514;48.810;2.134;2023-04-25T09:22:47;6.95;;;5.65;;
70780;SDS011;59514;48.810;2.134;2023-04-25T09:25:12;8.47;;;6.03;;
70780;SDS011;59514;48.810;2.134;2023-04-25T09:27:49;6.88;;;5.80;;
70780;SDS011;59514;48.810;2.134;2023-04-25T09:30:15;9.02;;;5.63;;
70780;SDS011;59514;48.810;2.134;2023-04-25T09:32:41;6.80;;;5.57;;
70780;SDS011;59514;48.810;2.134;2023-04-25T09:35:07;6.13;;;5.13;;
70780;SDS011;59514;48.810;2.134;2023-04-25T09:37:33;6.43;;;5.10;;
70780;SDS011;59514;48.810;2.134;2023-04-25T09:39:59;8.80;;;5.70;;
70780;SDS011;59514;48.810;2.134;2023-04-25T09:42:25;9.40;;;5.65;;
70780;SDS011;59514;48.810;2.134;2023-04-25T09:44:55;4.68;;;4.13;;
70780;SDS011;59514;48.810;2.134;2023-04-25T09:47:20;6.00;;;4.68;;
70780;SDS011;59514;48.810;2.134;2023-04-25T09:49:48;10.70;;;5.85;;
70780;SDS011;59514;48.810;2.134;2023-04-25T09:52:17;6.47;;;4.75;;
70780;SDS011;59514;48.810;2.134;2023-04-25T09:54:46;8.20;;;5.78;;
70780;SDS011;59514;48.810;2.134;2023-04-25T09:57:22;6.70;;;4.65;;
70780;SDS011;59514;48.810;2.134;2023-04-25T09:59:51;7.45;;;4.93;;
70780;SDS011;59514;48.810;2.134;2023-04-25T10:02:17;8.40;;;5.30;;
70780;SDS011;59514;48.810;2.134;2023-04-25T10:04:44;7.32;;;4.47;;
70780;SDS011;59514;48.810;2.134;2023-04-25T10:07:12;6.63;;;4.50;;
70780;SDS011;59514;48.810;2.134;2023-04-25T10:09:38;8.43;;;4.78;;
70780;SDS011;59514;48.810;2.134;2023-04-25T10:12:04;6.00;;;4.53;;
70780;SDS011;59514;48.810;2.134;2023-04-25T10:14:31;4.53;;;4.13;;
70780;SDS011;59514;48.810;2.134;2023-04-25T10:16:57;6.07;;;4.95;;
70780;SDS011;59514;48.810;2.134;2023-04-25T10:19:22;4.70;;;3.90;;
70780;SDS011;59514;48.810;2.134;2023-04-25T10:21:51;5.10;;;4.57;;
70780;SDS011;59514;48.810;2.134;2023-04-25T10:24:16;4.65;;;3.97;;
70780;SDS011;59514;48.810;2.134;2023-04-25T10:26:42;4.55;;;3.85;;
70780;SDS011;59514;48.810;2.134;2023-04-25T10:29:08;7.07;;;4.88;;
70780;SDS011;59514;48.810;2.134;2023-04-25T10:31:34;4.40;;;3.70;;
70780;SDS011;59514;48.810;2.134;2023-04-25T10:34:09;4.82;;;3.53;;
70780;SDS011;59514;48.810;2.134;2023-04-25T10:36:34;6.40;;;4.15;;
70780;SDS011;59514;48.810;2.134;2023-04-25T10:39:03;5.30;;;4.18;;
70780;SDS011;59514;48.810;2.134;2023-04-25T10:44:00;6.20;;;4.30;;
70780;SDS011;59514;48.810;2.134;2023-04-25T10:46:27;4.93;;;4.00;;
70780;SDS011;59514;48.810;2.134;2023-04-25T10:51:19;4.57;;;3.77;;
70780;SDS011;59514;48.810;2.134;2023-04-25T10:53:45;5.75;;;3.05;;
70780;SDS011;59514;48.810;2.134;2023-04-25T10:56:20;4.30;;;3.30;;
70780;SDS011;59514;48.810;2.134;2023-04-25T10:58:46;3.63;;;3.33;;
70780;SDS011;59514;48.810;2.134;2023-04-25T11:01:12;4.15;;;3.22;;
70780;SDS011;59514;48.810;2.134;2023-04-25T11:03:41;3.47;;;2.83;;
70780;SDS011;59514;48.810;2.134;2023-04-25T11:06:08;3.78;;;2.70;;
70780;SDS011;59514;48.810;2.134;2023-04-25T11:08:49;6.13;;;2.85;;
70780;SDS011;59514;48.810;2.134;2023-04-25T11:11:18;3.13;;;2.83;;
70780;SDS011;59514;48.810;2.134;2023-04-25T11:13:44;5.72;;;3.17;;
70780;SDS011;59514;48.810;2.134;2023-04-25T11:16:09;5.07;;;3.03;;
70780;SDS011;59514;48.810;2.134;2023-04-25T11:18:35;3.67;;;3.20;;
70780;SDS011;59514;48.810;2.134;2023-04-25T11:21:00;4.63;;;2.77;;
70780;SDS011;59514;48.810;2.134;2023-04-25T11:23:25;3.28;;;3.00;;
70780;SDS011;59514;48.810;2.134;2023-04-25T11:25:51;3.45;;;3.03;;
70780;SDS011;59514;48.810;2.134;2023-04-25T11:28:20;4.53;;;3.00;;
70780;SDS011;59514;48.810;2.134;2023-04-25T11:30:49;3.33;;;2.53;;
70780;SDS011;59514;48.810;2.134;2023-04-25T11:33:15;4.22;;;3.08;;
70780;SDS011;59514;48.810;2.134;2023-04-25T11:35:40;3.28;;;2.80;;
70780;SDS011;59514;48.810;2.134;2023-04-25T11:38:05;6.00;;;2.88;;
70780;SDS011;59514;48.810;2.134;2023-04-25T11:40:31;4.80;;;2.77;;
70780;SDS011;59514;48.810;2.134;2023-04-25T11:42:56;4.68;;;2.58;;
70780;SDS011;59514;48.810;2.134;2023-04-25T11:45:24;3.30;;;2.65;;
70780;SDS011;59514;48.810;2.134;2023-04-25T11:47:50;3.80;;;2.50;;
70780;SDS011;59514;48.810;2.134;2023-04-25T11:50:15;2.93;;;2.10;;
70780;SDS011;59514;48.810;2.134;2023-04-25T11:52:41;5.60;;;2.77;;
70780;SDS011;59514;48.810;2.134;2023-04-25T11:55:07;4.88;;;2.72;;
70780;SDS011;59514;48.810;2.134;2023-04-25T11:57:33;4.88;;;3.15;;
70780;SDS011;59514;48.810;2.134;2023-04-25T12:02:51;4.22;;;2.72;;
70780;SDS011;59514;48.810;2.134;2023-04-25T12:05:16;6.30;;;3.10;;
70780;SDS011;59514;48.810;2.134;2023-04-25T12:07:42;3.90;;;2.33;;
70780;SDS011;59514;48.810;2.134;2023-04-25T12:10:08;2.75;;;2.33;;
70780;SDS011;59514;48.810;2.134;2023-04-25T12:12:34;2.63;;;2.42;;
70780;SDS011;59514;48.810;2.134;2023-04-25T12:15:22;3.47;;;2.20;;
70780;SDS011;59514;48.810;2.134;2023-04-25T12:17:48;5.43;;;2.67;;
70780;SDS011;59514;48.810;2.134;2023-04-25T12:20:14;2.65;;;2.30;;
70780;SDS011;59514;48.810;2.134;2023-04-25T12:22:40;5.05;;;2.97;;
70780;SDS011;59514;48.810;2.134;2023-04-25T12:25:09;4.75;;;2.65;;
70780;SDS011;59514;48.810;2.134;2023-04-25T12:27:35;3.63;;;2.33;;
70780;SDS011;59514;48.810;2.134;2023-04-25T12:30:00;16.35;;;14.65;;
70780;SDS011;59514;48.810;2.134;2023-04-25T12:32:26;5.35;;;4.00;;
70780;SDS011;59514;48.810;2.134;2023-04-25T12:34:52;4.75;;;3.83;;
70780;SDS011;59514;48.810;2.134;2023-04-25T12:37:17;4.93;;;3.40;;
70780;SDS011;59514;48.810;2.134;2023-04-25T12:39:42;4.07;;;3.20;;
70780;SDS011;59514;48.810;2.134;2023-04-25T12:42:07;5.13;;;3.10;;
70780;SDS011;59514;48.810;2.134;2023-04-25T12:44:33;3.03;;;2.37;;
70780;SDS011;59514;48.810;2.134;2023-04-25T12:46:58;3.35;;;2.58;;
70780;SDS011;59514;48.810;2.134;2023-04-25T12:49:24;3.63;;;2.42;;
70780;SDS011;59514;48.810;2.134;2023-04-25T12:51:50;3.03;;;2.42;;
70780;SDS011;59514;48.810;2.134;2023-04-25T12:54:16;3.10;;;2.22;;
70780;SDS011;59514;48.810;2.134;2023-04-25T12:56:41;2.93;;;2.60;;
70780;SDS011;59514;48.810;2.134;2023-04-25T12:59:07;3.08;;;2.47;;
70780;SDS011;59514;48.810;2.134;2023-04-25T13:01:32;2.67;;;2.35;;
70780;SDS011;59514;48.810;2.134;2023-04-25T13:03:58;2.85;;;2.30;;
70780;SDS011;59514;48.810;2.134;2023-04-25T13:06:23;2.80;;;2.13;;
70780;SDS011;59514;48.810;2.134;2023-04-25T13:08:48;4.40;;;2.00;;
70780;SDS011;59514;48.810;2.134;2023-04-25T13:11:13;4.20;;;2.77;;
70780;SDS011;59514;48.810;2.134;2023-04-25T13:13:41;3.47;;;2.20;;
70780;SDS011;59514;48.810;2.134;2023-04-25T13:16:07;3.50;;;1.90;;
70780;SDS011;59514;48.810;2.134;2023-04-25T13:18:32;2.67;;;2.10;;
70780;SDS011;59514;48.810;2.134;2023-04-25T13:20:58;4.22;;;2.20;;
70780;SDS011;59514;48.810;2.134;2023-04-25T13:23:24;4.82;;;2.20;;
70780;SDS011;59514;48.810;2.134;2023-04-25T13:25:50;3.50;;;2.30;;
70780;SDS011;59514;48.810;2.134;2023-04-25T13:28:15;3.03;;;2.10;;
70780;SDS011;59514;48.810;2.134;2023-04-25T13:30:41;3.08;;;2.00;;
70780;SDS011;59514;48.810;2.134;2023-04-25T13:33:06;3.00;;;2.42;;
70780;SDS011;59514;48.810;2.134;2023-04-25T13:35:32;3.25;;;2.15;;
70780;SDS011;59514;48.810;2.134;2023-04-25T13:37:57;5.35;;;3.28;;
70780;SDS011;59514;48.810;2.134;2023-04-25T13:40:22;4.03;;;2.60;;
70780;SDS011;59514;48.810;2.134;2023-04-25T13:42:48;3.53;;;2.63;;
70780;SDS011;59514;48.810;2.134;2023-04-25T13:45:13;3.73;;;2.33;;
70780;SDS011;59514;48.810;2.134;2023-04-25T13:47:38;2.60;;;2.40;;
70780;SDS011;59514;48.810;2.134;2023-04-25T13:50:04;3.27;;;2.53;;
70780;SDS011;59514;48.810;2.134;2023-04-25T13:52:30;2.65;;;2.20;;
70780;SDS011;59514;48.810;2.134;2023-04-25T13:54:55;4.10;;;2.72;;
70780;SDS011;59514;48.810;2.134;2023-04-25T13:57:21;3.13;;;2.83;;
70780;SDS011;59514;48.810;2.134;2023-04-25T13:59:46;3.60;;;2.80;;
70780;SDS011;59514;48.810;2.134;2023-04-25T14:02:11;4.67;;;3.47;;
70780;SDS011;59514;48.810;2.134;2023-04-25T14:04:37;2.58;;;2.35;;
70780;SDS011;59514;48.810;2.134;2023-04-25T14:07:02;3.03;;;2.73;;
70780;SDS011;59514;48.810;2.134;2023-04-25T14:09:28;3.55;;;3.25;;
70780;SDS011;59514;48.810;2.134;2023-04-25T14:11:53;2.88;;;2.60;;
70780;SDS011;59514;48.810;2.134;2023-04-25T14:14:19;3.13;;;2.53;;
70780;SDS011;59514;48.810;2.134;2023-04-25T14:16:44;4.50;;;2.40;;
70780;SDS011;59514;48.810;2.134;2023-04-25T14:19:10;3.80;;;2.50;;
70780;SDS011;59514;48.810;2.134;2023-04-25T14:21:35;4.30;;;2.53;;
70780;SDS011;59514;48.810;2.134;2023-04-25T14:24:00;2.27;;;2.07;;
70780;SDS011;59514;48.810;2.134;2023-04-25T14:26:26;2.37;;;2.10;;
70780;SDS011;59514;48.810;2.134;2023-04-25T14:28:51;2.63;;;2.20;;
70780;SDS011;59514;48.810;2.134;2023-04-25T14:31:16;2.95;;;2.33;;
70780;SDS011;59514;48.810;2.134;2023-04-25T14:33:42;2.83;;;2.57;;
70780;SDS011;59514;48.810;2.134;2023-04-25T14:36:08;5.05;;;2.28;;
70780;SDS011;59514;48.810;2.134;2023-04-25T14:38:33;4.60;;;2.30;;
70780;SDS011;59514;48.810;2.134;2023-04-25T14:40:58;4.63;;;2.40;;
70780;SDS011;59514;48.810;2.134;2023-04-25T14:43:23;3.17;;;2.20;;
70780;SDS011;59514;48.810;2.134;2023-04-25T14:45:48;5.63;;;2.77;;